Vremea mâine în Dăbuleni - Romania

Vrei sa afli care e starea vremii acum in Mehedinti - Romania? Dorim sa iti furnizam starea vremii pentru Mehedinti - Romania. Starea vremii Mehedinti - Romania pentru astazi.

Vremea mâine în Dăbuleni

Temperatura minimă:
11.3 °C

Temperatura maximă:
25.9 °C

Mâine va fi: Senin
Precipitații: 0 %
Umiditate: 56%
Viteza maximă vânt mâine:
11.5 km/h

Evoluția vremii in Dăbuleni pe ore mâine

Ora: 03:00
Temperatura: °C
Sansa de precipitatii: %
Ora Descriere Temp Se simte Precipitatii Umiditate Vant
00:00Senin14.4°13.7°0%63%SSE 11.5 KM/H
01:00Senin13.9°13.3°0%63%SSE 10.4 KM/H
02:00Senin13.4°12.9°0%64%SSE 9 KM/H
03:00Senin12.8°12.3°0%67%S 8.3 KM/H
04:00Senin12.3°11.9°0%70%SSE 6.8 KM/H
05:00Senin11.8°11.6°0%73%SE 5.8 KM/H
06:00Senin11.3°11.4°0%75%SE 4.3 KM/H
07:00Senin11.9°12°0%76%SE 4.7 KM/H
08:00Senin15.1°15.1°0%69%SSE 4.3 KM/H
09:00Senin17.4°17.4°0%62%SSW 5.8 KM/H
10:00Senin19.2°19.2°0%57%SW 6.1 KM/H
11:00Senin20.9°20.9°0%53%WSW 7.2 KM/H
12:00Senin22.4°24.5°0%49%W 7.6 KM/H
13:00Senin23.5°24.8°0%46%WNW 6.8 KM/H
14:00Senin24.6°25.3°0%44%WNW 5.8 KM/H
15:00Senin25.5°25.8°0%41%NW 3.6 KM/H
16:00Senin25.9°25.8°0%38%NNW 0.7 KM/H
17:00Senin25.8°25.6°0%35%E 1.4 KM/H
18:00Senin25.6°25.5°0%35%E 4.3 KM/H
19:00Senin24.4°25.3°0%47%ESE 5.8 KM/H
20:00Senin20.3°20.3°0%52%SE 7.2 KM/H
21:00Patchy rain nearby18.4°18.4°68%54%SSE 7.9 KM/H
22:00Senin17.7°17.7°0%56%SSE 6.5 KM/H
23:00Senin17°17°0%57%SSE 6.5 KM/H




tutorials